createdAt,value
2017-08-01T00:00:08.525Z,75.0
2017-08-01T00:00:50.320Z,42.6
2017-08-01T00:01:31.318Z,65.3
2017-08-01T00:02:12.312Z,60.1
2017-08-01T00:02:53.706Z,67.2
2017-08-01T00:03:34.711Z,63.8
2017-08-01T00:04:15.787Z,46.7
2017-08-01T00:04:56.683Z,62.6
2017-08-01T00:05:37.695Z,61.8
2017-08-01T00:06:18.693Z,62.1
2017-08-01T00:06:59.692Z,75.0
2017-08-01T00:07:40.791Z,71.8
2017-08-01T00:08:21.891Z,68.9
2017-08-01T00:09:02.886Z,69.6
2017-08-01T00:09:43.787Z,48.8
2017-08-01T00:10:24.770Z,61.5
2017-08-01T00:11:05.668Z,63.6
2017-08-01T00:11:46.659Z,63.8
2017-08-01T00:12:27.758Z,67.4
2017-08-01T00:13:09.047Z,66.7
2017-08-01T00:13:49.933Z,70.2
2017-08-01T00:14:31.917Z,69.8
2017-08-01T00:15:13.207Z,73.7
2017-08-01T00:15:54.117Z,63.8
2017-08-01T00:16:35.115Z,67.4
2017-08-01T00:17:16.109Z,75.0
2017-08-01T00:17:57.213Z,71.6
2017-08-01T00:18:38.105Z,69.6
2017-08-01T00:19:18.910Z,33.4
2017-08-01T00:20:00.005Z,85.3
2017-08-01T00:20:41.300Z,62.9
2017-08-01T00:21:22.188Z,74.3
2017-08-01T00:22:03.191Z,41.3
2017-08-01T00:22:44.177Z,69.6
2017-08-01T00:23:25.089Z,75.0
2017-08-01T00:24:06.286Z,54.7
2017-08-01T00:24:47.394Z,71.5
2017-08-01T00:25:28.495Z,42.6
2017-08-01T00:26:09.473Z,71.6
2017-08-01T00:26:50.474Z,75.0
2017-08-01T00:27:31.562Z,75.0
2017-08-01T00:28:12.549Z,61.6
2017-08-01T00:28:53.551Z,79.1
2017-08-01T00:29:34.531Z,73.0
2017-08-01T00:30:15.931Z,71.0
2017-08-01T00:30:57.025Z,46.2
2017-08-01T00:31:38.020Z,77.9
2017-08-01T00:32:19.011Z,75.0
2017-08-01T00:33:00.200Z,121.3
2017-08-01T00:33:41.284Z,120.0
2017-08-01T00:34:22.371Z,120.0
2017-08-01T00:35:03.268Z,120.0
2017-08-01T00:35:44.364Z,202.4
2017-08-01T00:36:25.454Z,120.0
2017-08-01T00:37:06.552Z,120.0
2017-08-01T00:37:47.552Z,120.0
2017-08-01T00:38:28.545Z,120.0
2017-08-01T00:39:09.732Z,120.0
2017-08-01T00:39:50.836Z,120.0
2017-08-01T00:40:31.926Z,120.0
2017-08-01T00:41:13.030Z,120.0
2017-08-01T00:41:54.235Z,120.0
2017-08-01T00:42:35.226Z,120.0
2017-08-01T00:43:16.418Z,120.0
2017-08-01T00:43:57.508Z,120.0
2017-08-01T00:44:38.667Z,120.0
2017-08-01T00:45:19.561Z,354.7
2017-08-01T00:46:00.752Z,42.7
2017-08-01T00:46:41.848Z,75.0
2017-08-01T00:47:22.937Z,75.0
2017-08-01T00:48:03.825Z,75.0
2017-08-01T00:48:44.819Z,190.1
2017-08-01T00:49:26.217Z,210.0
2017-08-01T00:50:07.310Z,205.4
2017-08-01T00:50:48.528Z,186.6
2017-08-01T00:51:29.697Z,210.0
2017-08-01T00:52:10.792Z,210.0
2017-08-01T00:52:52.092Z,220.0
2017-08-01T00:53:33.592Z,255.0
2017-08-01T00:54:14.583Z,216.9
2017-08-01T00:54:55.574Z,210.0
2017-08-01T00:55:36.574Z,210.0
2017-08-01T00:56:17.568Z,210.0
2017-08-01T00:56:58.682Z,120.0
2017-08-01T00:57:39.678Z,120.0
2017-08-01T00:58:20.571Z,255.0
2017-08-01T00:59:01.663Z,255.0
2017-08-01T00:59:42.754Z,255.0
2017-08-01T01:00:23.652Z,255.0
2017-08-01T01:01:04.651Z,255.0
2017-08-01T01:01:45.941Z,255.0
2017-08-01T01:02:26.936Z,255.0
2017-08-01T01:03:08.640Z,255.0
2017-08-01T01:03:49.633Z,22.8
2017-08-01T01:04:30.827Z,30.0
2017-08-01T01:05:11.915Z,75.0
2017-08-01T01:05:53.010Z,212.1
2017-08-01T01:06:34.409Z,210.0
2017-08-01T01:07:15.603Z,205.3
2017-08-01T01:07:56.691Z,112.3
2017-08-01T01:08:37.687Z,162.2
2017-08-01T01:09:19.070Z,195.1
2017-08-01T01:09:59.869Z,165.0
2017-08-01T01:10:40.790Z,165.0
2017-08-01T01:11:21.877Z,165.0
2017-08-01T01:12:02.881Z,165.0
2017-08-01T01:12:43.875Z,165.0
2017-08-01T01:13:24.670Z,165.0
2017-08-01T01:14:05.668Z,165.0
2017-08-01T01:14:46.587Z,165.0
2017-08-01T01:15:27.568Z,165.0
2017-08-01T01:16:08.460Z,165.0
2017-08-01T01:16:49.462Z,165.0
2017-08-01T01:17:30.244Z,165.0
2017-08-01T01:18:11.337Z,165.0
2017-08-01T01:18:52.433Z,165.0
2017-08-01T01:19:33.725Z,165.0
2017-08-01T01:20:14.820Z,165.0
2017-08-01T01:20:55.707Z,165.0
2017-08-01T01:21:36.806Z,165.0
2017-08-01T01:22:17.793Z,165.0
2017-08-01T01:22:58.990Z,165.0
2017-08-01T01:23:41.358Z,165.0
2017-08-01T01:24:22.354Z,165.0
2017-08-01T01:25:03.342Z,165.0
2017-08-01T01:25:44.137Z,165.0
2017-08-01T01:26:25.219Z,165.0
2017-08-01T01:27:06.728Z,165.0
2017-08-01T01:27:47.827Z,165.0
2017-08-01T01:28:28.814Z,165.0
2017-08-01T01:29:09.821Z,165.0
2017-08-01T01:29:50.716Z,165.0
2017-08-01T01:30:31.906Z,165.0
2017-08-01T01:31:13.868Z,165.0
2017-08-01T01:31:55.862Z,165.0
2017-08-01T01:32:38.303Z,165.0
2017-08-01T01:33:21.089Z,165.0
2017-08-01T01:34:03.747Z,165.0
2017-08-01T01:34:45.970Z,165.0
2017-08-01T01:35:28.320Z,165.0
2017-08-01T01:36:10.873Z,165.0
2017-08-01T01:36:53.300Z,165.0
2017-08-01T01:37:35.712Z,165.0
2017-08-01T01:38:19.135Z,165.0
2017-08-01T01:39:01.589Z,165.0
2017-08-01T01:39:44.135Z,165.0
2017-08-01T01:40:26.419Z,165.0
2017-08-01T01:41:09.222Z,165.0
2017-08-01T01:41:51.693Z,165.0
2017-08-01T01:42:33.912Z,165.0
2017-08-01T01:43:16.199Z,165.0
2017-08-01T01:43:58.933Z,165.0
2017-08-01T01:44:41.406Z,165.0
2017-08-01T01:45:24.024Z,165.0
2017-08-01T01:46:06.455Z,165.0
2017-08-01T01:46:49.074Z,165.0
2017-08-01T01:47:30.940Z,165.0
2017-08-01T01:48:13.504Z,165.0
2017-08-01T01:48:56.267Z,165.0
2017-08-01T01:49:38.805Z,165.0
2017-08-01T01:50:21.299Z,165.0
2017-08-01T01:51:03.732Z,165.0
2017-08-01T01:51:47.416Z,165.0
2017-08-01T01:52:29.734Z,165.0
2017-08-01T01:53:11.884Z,165.0
2017-08-01T01:53:54.291Z,165.0
2017-08-01T01:54:36.685Z,165.0
2017-08-01T01:55:19.131Z,165.0
2017-08-01T01:56:01.601Z,165.0
2017-08-01T01:56:44.440Z,165.0
2017-08-01T01:57:26.903Z,165.0
2017-08-01T01:58:09.342Z,165.0
2017-08-01T01:58:51.806Z,165.0
2017-08-01T01:59:34.202Z,165.0
2017-08-01T02:00:16.855Z,165.0
2017-08-01T02:00:59.400Z,165.0
2017-08-01T02:01:41.881Z,165.0
2017-08-01T02:02:23.805Z,165.0
2017-08-01T02:03:06.191Z,165.0
2017-08-01T02:03:48.414Z,165.0
2017-08-01T02:04:30.519Z,165.0
2017-08-01T02:05:12.755Z,165.0
2017-08-01T02:05:54.961Z,165.0
2017-08-01T02:06:37.297Z,165.0
2017-08-01T02:07:19.330Z,165.0
2017-08-01T02:08:01.143Z,165.0
2017-08-01T02:08:43.064Z,165.0
2017-08-01T02:09:25.081Z,165.0
2017-08-01T02:10:06.873Z,165.0
2017-08-01T02:10:48.964Z,165.0
2017-08-01T02:11:30.877Z,165.0
2017-08-01T02:12:13.335Z,165.0
2017-08-01T02:12:55.285Z,165.0
2017-08-01T02:13:37.143Z,165.0
2017-08-01T02:14:19.143Z,165.0
2017-08-01T02:15:00.851Z,165.0
2017-08-01T02:15:42.958Z,165.0
2017-08-01T02:16:24.746Z,165.0
2017-08-01T02:17:06.465Z,165.0
2017-08-01T02:17:47.926Z,165.0
2017-08-01T02:18:29.404Z,165.0
2017-08-01T02:19:10.889Z,165.0
2017-08-01T02:19:52.927Z,165.0
2017-08-01T02:20:34.938Z,165.0
2017-08-01T02:21:17.068Z,165.0
2017-08-01T02:21:59.495Z,165.0
2017-08-01T02:22:41.492Z,165.0
2017-08-01T02:23:23.641Z,165.0
2017-08-01T02:24:05.453Z,165.0
2017-08-01T02:24:47.411Z,165.0
2017-08-01T02:25:28.981Z,165.0
2017-08-01T02:26:10.522Z,165.0
2017-08-01T02:26:51.944Z,165.0
2017-08-01T02:27:33.487Z,165.0
2017-08-01T02:28:15.417Z,165.0
2017-08-01T02:28:57.079Z,165.0
2017-08-01T02:29:38.799Z,165.0
2017-08-01T02:30:20.387Z,165.0
2017-08-01T02:31:02.585Z,165.0
2017-08-01T02:31:44.776Z,165.0
2017-08-01T02:32:27.026Z,165.0
2017-08-01T02:33:09.540Z,165.0
2017-08-01T02:33:51.442Z,165.0
2017-08-01T02:34:33.703Z,46.7
2017-08-01T02:35:15.628Z,30.0
2017-08-01T02:35:57.319Z,30.0
2017-08-01T02:36:39.283Z,30.0
2017-08-01T02:37:21.428Z,30.0
2017-08-01T02:38:03.720Z,30.0
2017-08-01T02:38:45.009Z,30.0
2017-08-01T02:39:27.009Z,30.0
2017-08-01T02:40:09.041Z,30.0
2017-08-01T02:40:50.575Z,30.0
2017-08-01T02:41:32.242Z,30.0
2017-08-01T02:42:13.515Z,30.0
2017-08-01T02:42:55.419Z,30.0
2017-08-01T02:43:37.343Z,30.0
2017-08-01T02:44:19.391Z,30.0
2017-08-01T02:45:01.234Z,30.0
2017-08-01T02:45:42.996Z,30.0
2017-08-01T02:46:25.005Z,30.0
2017-08-01T02:47:06.777Z,30.0
2017-08-01T02:47:48.619Z,30.0
2017-08-01T02:48:30.717Z,30.0
2017-08-01T02:49:13.163Z,30.0
2017-08-01T02:49:55.431Z,30.0
2017-08-01T02:50:37.693Z,30.0
2017-08-01T02:51:19.725Z,30.0
2017-08-01T02:52:02.044Z,30.0
2017-08-01T02:52:44.531Z,30.0
2017-08-01T02:53:27.077Z,30.0
2017-08-01T02:54:09.372Z,30.0
2017-08-01T02:54:51.293Z,30.0
2017-08-01T02:55:33.051Z,30.0
2017-08-01T02:56:14.920Z,30.0
2017-08-01T02:56:56.929Z,30.0
2017-08-01T02:57:39.011Z,30.0
2017-08-01T02:58:20.746Z,30.0
2017-08-01T02:59:02.086Z,30.0
2017-08-01T02:59:43.697Z,30.0
2017-08-01T03:00:25.366Z,30.0
2017-08-01T03:01:07.571Z,30.0
2017-08-01T03:01:49.418Z,30.0
2017-08-01T03:02:31.124Z,30.0
2017-08-01T03:03:12.775Z,30.0
2017-08-01T03:03:54.472Z,30.0
2017-08-01T03:04:36.222Z,30.0
2017-08-01T03:05:18.384Z,30.0
2017-08-01T03:06:00.557Z,30.0
2017-08-01T03:06:42.522Z,30.0
2017-08-01T03:07:24.684Z,30.0
2017-08-01T03:08:06.745Z,30.0
2017-08-01T03:08:48.454Z,30.0
2017-08-01T03:09:30.420Z,30.0
2017-08-01T03:10:12.517Z,30.0
2017-08-01T03:10:54.513Z,30.0
2017-08-01T03:11:36.562Z,30.0
2017-08-01T03:12:18.260Z,30.0
2017-08-01T03:13:00.479Z,30.0
2017-08-01T03:13:42.449Z,30.0
2017-08-01T03:14:24.004Z,30.0
2017-08-01T03:15:05.708Z,30.0
2017-08-01T03:15:47.792Z,30.0
2017-08-01T03:16:29.720Z,30.0
2017-08-01T03:17:11.740Z,30.0
2017-08-01T03:17:53.606Z,30.0
2017-08-01T03:18:35.492Z,30.0
2017-08-01T03:19:17.305Z,30.0
2017-08-01T03:19:59.183Z,30.0
2017-08-01T03:20:41.162Z,30.0
2017-08-01T03:21:22.935Z,30.0
2017-08-01T03:22:04.879Z,30.0
2017-08-01T03:22:46.375Z,30.0
2017-08-01T03:23:28.870Z,30.0
2017-08-01T03:24:10.634Z,30.0
2017-08-01T03:24:52.350Z,30.0
2017-08-01T03:25:34.844Z,30.0
2017-08-01T03:26:16.591Z,30.0
2017-08-01T03:26:58.518Z,30.0
2017-08-01T03:27:39.996Z,120.0
2017-08-01T03:28:21.757Z,120.0
2017-08-01T03:29:02.911Z,120.0
2017-08-01T03:29:44.905Z,120.0
2017-08-01T03:30:26.748Z,120.0
2017-08-01T03:31:08.481Z,120.0
2017-08-01T03:31:50.344Z,120.0
2017-08-01T03:32:32.377Z,120.0
2017-08-01T03:33:14.304Z,120.0
2017-08-01T03:33:56.807Z,120.0
2017-08-01T03:34:38.905Z,120.0
2017-08-01T03:35:20.553Z,120.0
2017-08-01T03:36:02.620Z,120.0
2017-08-01T03:36:44.353Z,120.0
2017-08-01T03:37:26.173Z,120.0
2017-08-01T03:38:08.260Z,120.0
2017-08-01T03:38:50.073Z,120.0
2017-08-01T03:39:31.870Z,120.0
2017-08-01T03:40:13.877Z,120.0
2017-08-01T03:40:55.596Z,120.0
2017-08-01T03:41:37.511Z,43.8
2017-08-01T03:42:20.096Z,165.0
2017-08-01T03:43:02.202Z,165.0
2017-08-01T03:43:43.992Z,135.6
2017-08-01T03:44:26.363Z,120.0
2017-08-01T03:45:08.551Z,190.5
2017-08-01T03:45:50.509Z,210.0
2017-08-01T03:46:32.565Z,210.0
2017-08-01T03:47:14.609Z,210.0
2017-08-01T03:47:56.551Z,44.9
2017-08-01T03:48:38.352Z,30.0
2017-08-01T03:49:20.632Z,25.7
2017-08-01T03:50:02.550Z,300.0
2017-08-01T03:50:44.186Z,333.1
2017-08-01T03:51:26.205Z,333.8
2017-08-01T03:52:08.406Z,345.0
2017-08-01T03:52:50.480Z,345.0
2017-08-01T03:53:32.409Z,345.0
2017-08-01T03:54:14.442Z,345.0
2017-08-01T03:54:56.375Z,345.0
2017-08-01T03:55:38.162Z,345.0
2017-08-01T03:56:19.870Z,345.0
2017-08-01T03:57:01.741Z,345.0
2017-08-01T03:57:43.679Z,345.0
2017-08-01T03:58:25.453Z,345.0
2017-08-01T03:59:07.672Z,345.0
2017-08-01T03:59:49.314Z,345.0
2017-08-01T04:00:30.699Z,345.0
2017-08-01T04:01:12.773Z,345.0
2017-08-01T04:01:54.447Z,345.0
2017-08-01T04:02:36.428Z,345.0
2017-08-01T04:03:18.443Z,345.0
2017-08-01T04:04:00.451Z,208.7
2017-08-01T04:04:42.142Z,210.0
2017-08-01T04:05:23.915Z,210.0
2017-08-01T04:06:06.040Z,210.0
2017-08-01T04:06:47.974Z,210.0
2017-08-01T04:07:29.804Z,210.0
2017-08-01T04:08:11.915Z,210.0
2017-08-01T04:08:53.810Z,210.0
2017-08-01T04:09:35.756Z,210.0
2017-08-01T04:10:17.576Z,262.5
2017-08-01T04:10:59.415Z,314.1
2017-08-01T04:11:41.309Z,169.7
2017-08-01T04:12:23.077Z,165.0
2017-08-01T04:13:04.619Z,189.0
2017-08-01T04:13:45.927Z,210.0
2017-08-01T04:14:27.817Z,210.0
2017-08-01T04:15:09.598Z,210.0
2017-08-01T04:15:51.408Z,210.0
2017-08-01T04:16:33.072Z,205.9
2017-08-01T04:17:14.505Z,75.0
2017-08-01T04:17:56.125Z,75.0
2017-08-01T04:18:37.852Z,75.0
2017-08-01T04:19:19.724Z,75.0
2017-08-01T04:20:01.630Z,119.2
2017-08-01T04:20:43.316Z,165.0
2017-08-01T04:21:25.503Z,165.0
2017-08-01T04:22:07.137Z,165.0
2017-08-01T04:22:48.993Z,165.0
2017-08-01T04:23:30.273Z,151.7
2017-08-01T04:24:12.413Z,210.0
2017-08-01T04:24:54.373Z,210.0
2017-08-01T04:25:36.378Z,165.0
2017-08-01T04:26:18.698Z,165.0
2017-08-01T04:27:00.804Z,165.0
2017-08-01T04:27:42.844Z,165.0
2017-08-01T04:28:25.059Z,165.0
2017-08-01T04:29:07.387Z,165.0
2017-08-01T04:29:49.759Z,165.0
2017-08-01T04:30:32.178Z,128.6
2017-08-01T04:31:13.782Z,102.9
2017-08-01T04:31:55.697Z,120.0
2017-08-01T04:32:37.253Z,82.6
2017-08-01T04:33:19.548Z,75.0
2017-08-01T04:34:01.114Z,45.6
2017-08-01T04:34:42.209Z,75.0
2017-08-01T04:35:23.404Z,75.0
2017-08-01T04:36:04.507Z,75.0
2017-08-01T04:36:45.607Z,75.0
2017-08-01T04:37:26.714Z,75.0
2017-08-01T04:38:07.709Z,75.0
2017-08-01T04:38:48.706Z,75.0
2017-08-01T04:39:29.937Z,75.0
2017-08-01T04:40:11.975Z,75.0
2017-08-01T04:40:53.926Z,75.0
2017-08-01T04:41:35.928Z,75.0
2017-08-01T04:42:17.860Z,75.0
2017-08-01T04:43:00.038Z,75.0
2017-08-01T04:43:41.936Z,75.0
2017-08-01T04:44:23.860Z,75.0
2017-08-01T04:45:05.428Z,75.0
2017-08-01T04:45:47.541Z,75.0
2017-08-01T04:46:29.282Z,75.0
2017-08-01T04:47:11.163Z,75.0
2017-08-01T04:47:52.169Z,75.0
2017-08-01T04:48:34.262Z,75.0
2017-08-01T04:49:16.501Z,75.0
2017-08-01T04:49:58.488Z,75.0
2017-08-01T04:50:40.311Z,75.0
2017-08-01T04:51:22.064Z,75.0
2017-08-01T04:52:04.185Z,75.0
2017-08-01T04:52:45.758Z,75.0
2017-08-01T04:53:28.124Z,75.0
2017-08-01T04:54:09.726Z,75.0
2017-08-01T04:54:51.382Z,75.0
2017-08-01T04:55:33.321Z,75.0
2017-08-01T04:56:15.601Z,75.0
2017-08-01T04:56:57.522Z,75.0
2017-08-01T04:57:39.038Z,75.0
2017-08-01T04:58:20.715Z,75.0
2017-08-01T04:59:02.935Z,75.0
2017-08-01T04:59:45.021Z,75.0
2017-08-01T05:00:26.700Z,75.0
2017-08-01T05:01:08.261Z,75.0
2017-08-01T05:01:50.691Z,75.0
2017-08-01T05:02:32.492Z,75.0
2017-08-01T05:03:14.473Z,98.8
2017-08-01T05:03:56.785Z,120.0
2017-08-01T05:04:39.073Z,120.0
2017-08-01T05:05:21.582Z,210.0
2017-08-01T05:06:03.964Z,210.0
2017-08-01T05:06:45.940Z,210.0
2017-08-01T05:07:27.723Z,210.0
2017-08-01T05:08:10.098Z,210.0
2017-08-01T05:08:52.291Z,210.0
2017-08-01T05:09:34.389Z,210.0
2017-08-01T05:10:16.630Z,210.0
2017-08-01T05:10:58.993Z,210.0
2017-08-01T05:11:41.584Z,210.0
2017-08-01T05:12:24.023Z,210.0
2017-08-01T05:13:06.078Z,210.0
2017-08-01T05:13:48.157Z,210.0
2017-08-01T05:14:30.858Z,210.0
2017-08-01T05:15:13.323Z,210.0
2017-08-01T05:15:55.879Z,210.0
2017-08-01T05:16:38.115Z,210.0
2017-08-01T05:17:19.681Z,210.0
2017-08-01T05:18:01.822Z,210.0
2017-08-01T05:18:44.004Z,210.0
2017-08-01T05:19:26.548Z,210.0
2017-08-01T05:20:09.036Z,210.0
2017-08-01T05:20:51.516Z,210.0
2017-08-01T05:21:33.765Z,210.0
2017-08-01T05:22:15.966Z,210.0
2017-08-01T05:22:58.333Z,210.0
2017-08-01T05:23:40.419Z,210.0
2017-08-01T05:24:22.520Z,210.0
2017-08-01T05:25:05.115Z,210.0
2017-08-01T05:25:47.819Z,210.0
2017-08-01T05:26:29.869Z,210.0
2017-08-01T05:27:12.650Z,210.0
2017-08-01T05:27:54.962Z,210.0
2017-08-01T05:28:37.609Z,210.0
2017-08-01T05:29:20.183Z,210.0
2017-08-01T05:30:02.396Z,210.0
2017-08-01T05:30:44.799Z,210.0
2017-08-01T05:31:27.186Z,210.0
2017-08-01T05:32:09.053Z,203.8
2017-08-01T05:32:52.728Z,98.0
2017-08-01T05:33:34.930Z,98.0
2017-08-01T05:34:16.960Z,98.0
2017-08-01T05:34:59.083Z,98.0
2017-08-01T05:35:41.304Z,98.0
2017-08-01T05:36:22.612Z,98.0
2017-08-01T05:37:03.697Z,31.3
2017-08-01T05:37:44.703Z,65.3
2017-08-01T05:38:25.889Z,74.3
2017-08-01T05:39:06.992Z,75.0
2017-08-01T05:39:47.984Z,75.0
2017-08-01T05:40:29.074Z,75.0
2017-08-01T05:41:10.284Z,75.0
2017-08-01T05:41:51.373Z,75.0
2017-08-01T05:42:32.478Z,69.5
2017-08-01T05:43:17.282Z,53.0
2017-08-01T05:43:58.281Z,210.0
2017-08-01T05:44:39.289Z,210.0
2017-08-01T05:45:20.308Z,196.1
2017-08-01T05:46:01.423Z,75.0
2017-08-01T05:46:42.516Z,75.0
2017-08-01T05:47:23.719Z,75.0
2017-08-01T05:48:04.715Z,75.0
2017-08-01T05:48:45.724Z,75.0
2017-08-01T05:49:26.819Z,73.7
2017-08-01T05:50:07.914Z,47.2
2017-08-01T05:50:48.912Z,75.0
2017-08-01T05:51:30.001Z,68.2
2017-08-01T05:52:10.897Z,57.1
2017-08-01T05:52:51.896Z,72.3
2017-08-01T05:53:32.894Z,84.0
2017-08-01T05:54:13.988Z,75.0
2017-08-01T05:54:55.177Z,75.0
2017-08-01T05:55:36.579Z,75.0
2017-08-01T05:56:17.680Z,54.0
2017-08-01T05:56:58.677Z,30.0
2017-08-01T05:57:39.873Z,53.3
2017-08-01T05:58:20.994Z,30.0
2017-08-01T05:59:02.189Z,70.3
2017-08-01T05:59:43.187Z,68.2
2017-08-01T06:00:24.390Z,72.9
2017-08-01T06:01:05.586Z,71.6
2017-08-01T06:01:46.796Z,72.3
2017-08-01T06:02:27.891Z,75.0
2017-08-01T06:03:08.993Z,75.0
2017-08-01T06:03:49.895Z,74.3
2017-08-01T06:04:30.994Z,75.0
2017-08-01T06:05:12.212Z,75.0
2017-08-01T06:05:53.419Z,72.3
2017-08-01T06:06:34.512Z,61.8
2017-08-01T06:07:15.611Z,120.0
2017-08-01T06:07:56.704Z,120.0
2017-08-01T06:08:37.906Z,83.8
2017-08-01T06:09:18.937Z,14.2
2017-08-01T06:10:00.342Z,52.6
2017-08-01T06:10:41.948Z,74.3
2017-08-01T06:11:23.192Z,70.1
2017-08-01T06:12:04.177Z,68.0
2017-08-01T06:12:45.472Z,103.0
2017-08-01T06:13:26.581Z,112.0
2017-08-01T06:14:07.598Z,104.1
2017-08-01T06:14:49.093Z,210.6
2017-08-01T06:15:29.987Z,71.4
2017-08-01T06:16:11.185Z,75.0
2017-08-01T06:16:52.872Z,234.3
2017-08-01T06:17:33.973Z,77.4
2017-08-01T06:18:15.327Z,60.9
2017-08-01T06:18:56.425Z,38.4
2017-08-01T06:19:37.529Z,30.0
2017-08-01T06:20:18.530Z,30.0
2017-08-01T06:20:59.532Z,30.0
2017-08-01T06:21:40.523Z,30.0
2017-08-01T06:22:21.525Z,30.0
2017-08-01T06:23:02.635Z,79.1
2017-08-01T06:23:43.633Z,75.0
2017-08-01T06:24:24.625Z,75.0
2017-08-01T06:25:05.622Z,247.0
2017-08-01T06:25:46.925Z,71.0
2017-08-01T06:26:27.920Z,39.9
2017-08-01T06:27:08.825Z,73.0
2017-08-01T06:27:49.926Z,75.0
2017-08-01T06:28:31.025Z,68.9
2017-08-01T06:29:12.222Z,63.1
2017-08-01T06:29:53.317Z,346.3
2017-08-01T06:30:34.419Z,346.3
2017-08-01T06:31:15.621Z,47.2
2017-08-01T06:31:56.618Z,30.0
2017-08-01T06:32:37.618Z,269.2
2017-08-01T06:33:19.122Z,253.0
2017-08-01T06:34:00.228Z,210.7
2017-08-01T06:34:41.245Z,210.7
2017-08-01T06:35:22.348Z,147.0
2017-08-01T06:36:03.544Z,210.0
2017-08-01T06:36:44.554Z,210.0
2017-08-01T06:37:26.557Z,210.0
2017-08-01T06:38:09.141Z,88.1
2017-08-01T06:38:51.815Z,66.8
2017-08-01T06:39:34.547Z,221.2
2017-08-01T06:40:16.860Z,239.4
2017-08-01T06:40:58.841Z,210.0
2017-08-01T06:41:41.180Z,133.2
2017-08-01T06:42:23.980Z,153.0
2017-08-01T06:43:06.787Z,255.0
2017-08-01T06:43:49.424Z,22.7
2017-08-01T06:44:32.131Z,34.2
2017-08-01T06:45:15.052Z,30.0
2017-08-01T06:45:57.720Z,30.0
2017-08-01T06:46:40.200Z,30.0
2017-08-01T06:47:22.491Z,75.0
2017-08-01T06:48:04.458Z,88.1
2017-08-01T06:48:46.772Z,201.1
2017-08-01T06:49:29.580Z,210.0
2017-08-01T06:50:12.284Z,218.6
2017-08-01T06:50:54.326Z,243.8
2017-08-01T06:51:36.505Z,255.0
2017-08-01T06:52:18.572Z,255.0
2017-08-01T06:53:01.104Z,255.0
2017-08-01T06:53:43.045Z,233.7
2017-08-01T06:54:25.241Z,233.0
2017-08-01T06:55:06.852Z,241.5
2017-08-01T06:55:48.826Z,255.0
2017-08-01T06:56:31.137Z,255.0
2017-08-01T06:57:13.330Z,255.0
2017-08-01T06:57:55.481Z,255.0
2017-08-01T06:58:37.925Z,255.0
2017-08-01T06:59:19.597Z,255.0
2017-08-01T07:00:01.432Z,255.0
2017-08-01T07:00:43.261Z,255.0
2017-08-01T07:01:24.765Z,255.0
2017-08-01T07:02:06.067Z,255.0
2017-08-01T07:02:48.329Z,242.4
2017-08-01T07:03:30.033Z,210.0
2017-08-01T07:04:11.800Z,210.0
2017-08-01T07:04:53.597Z,210.0
2017-08-01T07:05:35.236Z,210.0
2017-08-01T07:06:17.566Z,210.0
2017-08-01T07:06:59.344Z,210.0
2017-08-01T07:07:41.382Z,251.0
2017-08-01T07:08:23.339Z,225.6
2017-08-01T07:09:05.239Z,255.0
2017-08-01T07:09:47.220Z,280.8
2017-08-01T07:10:29.205Z,236.9
2017-08-01T07:11:10.639Z,188.5
2017-08-01T07:11:53.013Z,109.7
2017-08-01T07:12:35.526Z,224.9
2017-08-01T07:13:17.789Z,347.4
2017-08-01T07:14:00.216Z,347.6
2017-08-01T07:14:42.333Z,260.1
2017-08-01T07:15:24.119Z,298.4
2017-08-01T07:16:06.354Z,210.6
2017-08-01T07:16:48.519Z,225.6
2017-08-01T07:17:29.654Z,221.0
2017-08-01T07:18:11.661Z,220.6
2017-08-01T07:18:54.507Z,251.0
2017-08-01T07:19:37.057Z,248.9
2017-08-01T07:20:19.762Z,214.0
2017-08-01T07:21:02.139Z,135.7
2017-08-01T07:21:44.713Z,222.6
2017-08-01T07:22:27.389Z,234.2
2017-08-01T07:23:09.962Z,255.0
2017-08-01T07:23:52.840Z,232.6
2017-08-01T07:24:35.568Z,240.1
2017-08-01T07:25:18.255Z,217.7
2017-08-01T07:26:01.064Z,242.4
2017-08-01T07:26:43.558Z,247.4
2017-08-01T07:27:26.271Z,250.1
2017-08-01T07:28:08.864Z,219.6
2017-08-01T07:28:51.242Z,245.3
2017-08-01T07:29:32.903Z,234.8
2017-08-01T07:30:13.996Z,160.4
2017-08-01T07:30:55.131Z,221.3
2017-08-01T07:31:36.211Z,256.6
2017-08-01T07:32:17.687Z,261.8
2017-08-01T07:32:58.796Z,248.6
2017-08-01T07:33:39.817Z,263.0
2017-08-01T07:34:21.037Z,18.4
2017-08-01T07:35:02.347Z,243.7
2017-08-01T07:35:43.572Z,212.1
2017-08-01T07:36:24.677Z,255.0
2017-08-01T07:37:05.671Z,262.7
2017-08-01T07:37:46.682Z,75.0
2017-08-01T07:38:27.682Z,75.0
2017-08-01T07:39:08.595Z,142.3
2017-08-01T07:39:49.696Z,44.3
2017-08-01T07:40:30.802Z,255.0
2017-08-01T07:41:11.701Z,312.8
2017-08-01T07:41:52.804Z,144.3
2017-08-01T07:42:33.800Z,120.0
2017-08-01T07:43:15.005Z,255.0
2017-08-01T07:43:56.122Z,225.6
2017-08-01T07:44:37.121Z,210.0
2017-08-01T07:45:18.229Z,210.0
2017-08-01T07:45:59.329Z,227.2
2017-08-01T07:46:40.431Z,210.0
2017-08-01T07:47:21.452Z,210.0
2017-08-01T07:48:02.453Z,96.4
2017-08-01T07:48:43.758Z,169.3
2017-08-01T07:49:24.754Z,210.0
2017-08-01T07:50:05.760Z,210.0
2017-08-01T07:50:47.072Z,210.0
2017-08-01T07:51:28.275Z,79.3
2017-08-01T07:52:09.381Z,95.2
2017-08-01T07:52:50.381Z,120.0
2017-08-01T07:53:31.594Z,120.0
2017-08-01T07:54:12.596Z,120.0
2017-08-01T07:54:53.901Z,120.0
2017-08-01T07:55:34.909Z,58.0
2017-08-01T07:56:16.034Z,89.1
2017-08-01T07:56:57.043Z,63.8
2017-08-01T07:57:38.043Z,52.5
2017-08-01T07:58:18.952Z,86.3
2017-08-01T07:58:59.957Z,30.0
2017-08-01T07:59:40.954Z,30.0
2017-08-01T08:00:21.964Z,30.0
2017-08-01T08:01:03.161Z,30.0
2017-08-01T08:01:44.275Z,30.0
2017-08-01T08:02:25.474Z,55.9
2017-08-01T08:03:06.485Z,40.5
2017-08-01T08:03:48.283Z,75.0
2017-08-01T08:04:29.394Z,147.4
2017-08-01T08:05:10.595Z,165.0
2017-08-01T08:05:51.922Z,165.0
2017-08-01T08:06:33.110Z,113.7
2017-08-01T08:07:14.210Z,334.2
2017-08-01T08:07:55.323Z,338.9
2017-08-01T08:08:36.533Z,255.0
2017-08-01T08:09:17.534Z,221.2
2017-08-01T08:09:58.639Z,210.0
2017-08-01T08:10:40.649Z,216.8
2017-08-01T08:11:21.659Z,67.9
2017-08-01T08:12:03.166Z,226.9
2017-08-01T08:12:44.269Z,210.0
2017-08-01T08:13:25.375Z,210.0
2017-08-01T08:14:06.480Z,212.7
2017-08-01T08:14:47.685Z,212.3
2017-08-01T08:15:29.298Z,160.3
2017-08-01T08:16:10.307Z,243.3
2017-08-01T08:16:51.313Z,221.2
2017-08-01T08:17:32.519Z,210.0
2017-08-01T08:18:13.615Z,215.0
2017-08-01T08:18:54.613Z,53.3
2017-08-01T08:19:35.632Z,224.9
2017-08-01T08:20:16.840Z,223.4
2017-08-01T08:20:57.848Z,224.1
2017-08-01T08:21:38.947Z,255.0
2017-08-01T08:22:20.150Z,222.2
2017-08-01T08:23:01.262Z,187.6
2017-08-01T08:23:42.455Z,24.8
2017-08-01T08:24:23.464Z,263.6
2017-08-01T08:25:04.667Z,236.0
2017-08-01T08:25:45.774Z,195.4
2017-08-01T08:26:26.784Z,125.7
2017-08-01T08:27:07.785Z,211.3
2017-08-01T08:27:48.789Z,173.0
2017-08-01T08:28:29.799Z,209.2
2017-08-01T08:29:11.008Z,30.0
2017-08-01T08:29:52.107Z,102.3
2017-08-01T08:30:33.230Z,234.0
2017-08-01T08:31:14.417Z,256.4
2017-08-01T08:31:55.325Z,220.5
2017-08-01T08:32:36.372Z,252.2
2017-08-01T08:33:17.575Z,223.4
2017-08-01T08:33:58.676Z,231.2
2017-08-01T08:34:39.783Z,217.1
2017-08-01T08:35:20.986Z,57.4
2017-08-01T08:36:02.102Z,239.4
2017-08-01T08:36:43.213Z,243.8
2017-08-01T08:37:24.314Z,218.5
2017-08-01T08:38:05.414Z,212.7
2017-08-01T08:38:46.420Z,264.7
2017-08-01T08:39:27.522Z,56.9
2017-08-01T08:40:08.630Z,196.6
2017-08-01T08:40:49.730Z,217.6
2017-08-01T08:41:30.734Z,300.2
2017-08-01T08:42:11.813Z,243.7
2017-08-01T08:42:52.934Z,191.1
2017-08-01T08:43:34.010Z,255.0
2017-08-01T08:44:15.109Z,253.9
2017-08-01T08:44:56.129Z,255.0
2017-08-01T08:45:37.236Z,254.3
2017-08-01T08:46:18.247Z,229.4
2017-08-01T08:46:59.351Z,197.6
2017-08-01T08:47:40.453Z,233.3
2017-08-01T08:48:21.857Z,253.6
2017-08-01T08:49:03.057Z,210.9
2017-08-01T08:49:44.179Z,205.0
2017-08-01T08:50:25.275Z,206.6
2017-08-01T08:51:06.379Z,302.2
2017-08-01T08:51:47.383Z,212.1
2017-08-01T08:52:28.482Z,74.0
2017-08-01T08:53:09.489Z,210.0
2017-08-01T08:53:50.589Z,279.8
2017-08-01T08:54:31.602Z,243.5
2017-08-01T08:55:12.594Z,245.3
2017-08-01T08:55:53.603Z,253.7
2017-08-01T08:56:34.608Z,209.3
2017-08-01T08:57:15.722Z,235.6
2017-08-01T08:57:56.812Z,226.2
2017-08-01T08:58:37.813Z,255.0
2017-08-01T08:59:19.017Z,236.6
2017-08-01T09:00:00.019Z,250.3
2017-08-01T09:00:41.120Z,222.7
2017-08-01T09:01:22.123Z,212.6
2017-08-01T09:02:03.129Z,233.4
2017-08-01T09:02:44.145Z,224.9